Frazer, Montana
Current Conditions -  °F | °C
As of 2:53 PM on Monday 20 Oct 2014 (Local Time) from KOLF Reporting Station
Clear Clear  
Wind Chill: 78°   Ceiling: Unl
Heat Index: 78°   Visibility: 10mi
Dew Point: 44°   Wind: 7mph
Humidity: 30%   Direction: 140°SE
Pressure: 29.8"   Gusts: NA
Location:  48.06°N, 106.05°W
Report Text: KOLF 202053Z AUTO 14006KT 10SM CLR 26/07 A2980 RMK AO2 SLP092 T02560067 56024
Loading
Personal Weather Stations






























Interactive Weather Map
Tropical Storm Tracking
New forecast layout! Learn more

10-Day Weather Forecast

Advertisements
Track Severe Weather on mobile